Time;durP1;ratioP1;P1;durP2;ratioP2;P2;SDS_P1;SDS_P2;PMS_P1;PMS_P2;Temp;Humidity;BMP_temperature;BMP_pressure;BME280_temperature;BME280_humidity;BME280_pressure;Samples;Min_cycle;Max_cycle;Signal;HPM_P1;HPM_P2
2022/09/28 00:01:19;;;;;;;12.57;10.20;;;9.80;99.90;;;;;;5041933;28;20045;-75
2022/09/28 00:03:46;;;;;;;12.70;9.55;;;9.80;99.90;;;;;;5045093;28;20040;-76
2022/09/28 00:06:15;;;;;;;12.13;9.65;;;9.80;99.90;;;;;;5056316;28;20048;-75
2022/09/28 00:08:40;;;;;;;11.73;9.60;;;9.90;99.90;;;;;;5054744;28;20472;-75
2022/09/28 00:11:10;;;;;;;11.60;9.68;;;9.80;99.90;;;;;;5047661;28;20078;-75
2022/09/28 00:13:35;;;;;;;11.23;9.57;;;9.80;99.90;;;;;;5045973;28;20433;-75
2022/09/28 00:16:07;;;;;;;12.55;10.20;;;9.80;99.90;;;;;;5043141;28;20072;-76
2022/09/28 00:18:34;;;;;;;12.90;10.88;;;9.80;99.90;;;;;;5044304;28;20040;-76
2022/09/28 00:21:04;;;;;;;12.60;10.35;;;9.80;99.90;;;;;;5048214;28;20049;-77
2022/09/28 00:23:31;;;;;;;11.05;9.48;;;9.80;99.90;;;;;;5047951;28;20087;-76
2022/09/28 00:26:04;;;;;;;11.07;9.97;;;9.70;99.90;;;;;;5044769;28;20037;-76
2022/09/28 00:28:30;;;;;;;12.15;10.00;;;9.80;99.90;;;;;;5046741;28;20044;-76
2022/09/28 00:30:56;;;;;;;13.95;9.77;;;9.70;99.90;;;;;;5045460;28;20116;-75
2022/09/28 00:33:22;;;;;;;11.73;10.13;;;9.80;99.90;;;;;;5046347;28;20041;-75
2022/09/28 00:35:58;;;;;;;13.13;10.38;;;9.80;99.90;;;;;;5041417;28;20049;-76
2022/09/28 00:38:28;;;;;;;12.20;10.38;;;9.70;99.90;;;;;;5048401;28;20060;-74
2022/09/28 00:40:54;;;;;;;13.10;10.93;;;9.70;99.90;;;;;;5044906;28;20041;-77
2022/09/28 00:43:22;;;;;;;12.20;11.00;;;9.70;99.90;;;;;;5045876;28;20033;-77
2022/09/28 00:46:01;;;;;;;14.10;10.77;;;9.70;99.90;;;;;;5044893;28;20124;-76
2022/09/28 00:48:35;;;;;;;12.60;10.75;;;9.60;99.90;;;;;;5045515;28;20041;-76
2022/09/28 00:51:08;;;;;;;14.57;10.82;;;9.60;99.90;;;;;;5047893;28;20057;-76
2022/09/28 00:53:37;;;;;;;12.82;10.23;;;9.60;99.90;;;;;;5045808;28;20045;-76
2022/09/28 00:56:16;;;;;;;12.75;10.75;;;9.60;99.90;;;;;;5046825;28;20041;-77
2022/09/28 00:58:49;;;;;;;12.10;10.88;;;9.60;99.90;;;;;;5055618;28;20098;-77
2022/09/28 01:01:15;;;;;;;12.80;11.50;;;9.50;99.90;;;;;;5040901;28;21746;-77
2022/09/28 01:03:44;;;;;;;11.88;10.68;;;9.50;99.90;;;;;;5043023;28;20052;-77
2022/09/28 01:06:14;;;;;;;12.45;10.77;;;9.50;99.90;;;;;;5044059;28;20095;-76
2022/09/28 01:08:42;;;;;;;11.55;10.35;;;9.50;99.90;;;;;;5044130;28;20128;-76
2022/09/28 01:11:07;;;;;;;11.93;10.73;;;9.50;99.90;;;;;;5040918;28;20383;-76
2022/09/28 01:13:33;;;;;;;13.98;11.48;;;9.50;99.90;;;;;;5043276;28;20037;-76
2022/09/28 01:16:30;;;;;;;12.60;11.30;;;9.50;99.90;;;;;;5028912;28;20037;-77
2022/09/28 01:19:14;;;;;;;12.77;11.25;;;9.50;99.90;;;;;;5046175;28;20137;-77
2022/09/28 01:22:26;;;;;;;12.80;11.13;;;9.40;99.90;;;;;;5049570;28;20055;-77
2022/09/28 01:25:24;;;;;;;14.27;11.00;;;9.40;99.90;;;;;;5045478;28;20471;-76
2022/09/28 01:27:57;;;;;;;15.07;12.10;;;9.40;99.90;;;;;;5048556;28;20044;-77
2022/09/28 01:30:23;;;;;;;14.35;11.68;;;9.30;99.90;;;;;;5039656;28;20061;-76
2022/09/28 01:33:00;;;;;;;13.35;11.68;;;9.40;99.90;;;;;;5044466;28;20053;-76
2022/09/28 01:35:48;;;;;;;12.27;10.98;;;9.40;99.90;;;;;;5043145;28;20041;-76
2022/09/28 01:38:22;;;;;;;13.00;11.70;;;9.40;99.90;;;;;;5027142;28;20051;-75
2022/09/28 01:40:49;;;;;;;13.43;12.02;;;9.40;99.90;;;;;;5044675;28;20504;-76
2022/09/28 01:43:23;;;;;;;13.45;12.00;;;9.40;99.90;;;;;;5050708;28;20052;-77
2022/09/28 01:46:00;;;;;;;14.77;12.05;;;9.30;99.90;;;;;;5051035;28;20062;-77
2022/09/28 01:48:36;;;;;;;12.98;11.60;;;9.40;99.90;;;;;;5034648;28;20072;-77
2022/09/28 01:51:08;;;;;;;14.25;11.43;;;9.40;99.90;;;;;;5041269;28;20120;-77
2022/09/28 01:53:52;;;;;;;13.52;11.88;;;9.40;99.90;;;;;;5047429;28;20119;-77
2022/09/28 01:56:34;;;;;;;12.90;11.48;;;9.30;99.90;;;;;;5044634;28;20045;-77
2022/09/28 01:59:18;;;;;;;15.05;12.48;;;9.30;99.90;;;;;;5044804;28;20128;-77
2022/09/28 02:02:05;;;;;;;13.75;11.63;;;9.30;99.90;;;;;;5038255;28;20068;-77
2022/09/28 02:04:35;;;;;;;;;;;9.20;99.90;;;;;;5041101;28;20045;-77
2022/09/28 02:07:00;;;;;;;12.75;11.48;;;9.20;99.90;;;;;;5038006;28;19921;-77
2022/09/28 02:09:40;;;;;;;13.80;11.27;;;9.20;99.90;;;;;;5050219;28;20095;-76
2022/09/28 02:12:14;;;;;;;14.68;10.80;;;9.20;99.90;;;;;;5043054;28;20057;-77
2022/09/28 02:14:44;;;;;;;12.95;11.05;;;9.10;99.90;;;;;;5041898;28;20066;-76
2022/09/28 02:17:10;;;;;;;11.73;10.15;;;9.10;99.90;;;;;;5045132;28;20048;-76
2022/09/28 02:19:37;;;;;;;11.70;10.57;;;9.10;99.90;;;;;;5041467;28;20060;-77
2022/09/28 02:22:22;;;;;;;11.77;9.67;;;9.00;99.90;;;;;;5046076;28;20522;-76
2022/09/28 02:25:08;;;;;;;11.45;9.50;;;9.10;99.90;;;;;;5046997;28;20861;-77
2022/09/28 02:27:44;;;;;;;9.50;8.52;;;9.00;99.90;;;;;;5045137;28;20437;-77
2022/09/28 02:30:10;;;;;;;10.32;8.88;;;9.00;99.90;;;;;;5043472;28;20072;-78
2022/09/28 02:32:39;;;;;;;11.50;8.73;;;8.90;99.90;;;;;;5047140;28;20036;-77
2022/09/28 02:35:14;;;;;;;10.80;9.70;;;8.90;99.90;;;;;;5043968;28;20037;-78
2022/09/28 02:37:40;;;;;;;11.23;10.02;;;8.80;99.90;;;;;;5042908;28;20100;-77
2022/09/28 02:40:24;;;;;;;12.00;10.80;;;8.80;99.90;;;;;;5042461;28;20147;-77
2022/09/28 02:43:22;;;;;;;12.65;10.20;;;8.80;99.90;;;;;;5035282;28;20048;-77
2022/09/28 02:46:07;;;;;;;10.70;9.20;;;8.90;99.90;;;;;;5060493;28;20038;-77
2022/09/28 02:48:47;;;;;;;9.40;8.40;;;8.90;99.90;;;;;;5054188;28;20095;-76
2022/09/28 02:51:37;;;;;;;8.15;7.32;;;8.90;99.90;;;;;;5042288;28;20037;-76
2022/09/28 02:54:37;;;;;;;10.25;8.52;;;8.90;99.90;;;;;;5043179;28;20751;-76
2022/09/28 02:57:36;;;;;;;9.88;8.38;;;8.90;99.90;;;;;;5041712;28;20573;-76
2022/09/28 03:00:07;;;;;;;10.45;8.25;;;8.90;99.90;;;;;;5033472;28;20051;-76
2022/09/28 03:03:07;;;;;;;9.15;7.15;;;8.80;99.90;;;;;;5042087;28;20056;-77
2022/09/28 03:05:33;;;;;;;10.00;8.05;;;8.70;99.90;;;;;;5044096;28;20531;-77
2022/09/28 03:08:01;;;;;;;8.68;7.20;;;8.70;99.90;;;;;;5044794;28;20045;-78
2022/09/28 03:10:50;;;;;;;9.05;7.78;;;8.70;99.90;;;;;;5044379;28;20049;-76
2022/09/28 03:13:17;;;;;;;10.68;8.70;;;8.70;99.90;;;;;;5050438;28;20048;-77
2022/09/28 03:15:43;;;;;;;11.43;9.87;;;8.70;99.90;;;;;;5047644;28;20060;-78
2022/09/28 03:18:09;;;;;;;11.98;10.48;;;8.70;99.90;;;;;;5057157;28;20131;-77
2022/09/28 03:20:35;;;;;;;11.70;10.10;;;8.70;99.90;;;;;;5051880;28;20760;-76
2022/09/28 03:23:00;;;;;;;12.55;10.60;;;8.70;99.90;;;;;;5038550;28;20058;-76
2022/09/28 03:25:26;;;;;;;12.45;9.90;;;8.70;99.90;;;;;;5055949;28;20128;-76
2022/09/28 03:27:52;;;;;;;12.38;10.40;;;8.70;99.90;;;;;;5043858;28;20028;-76
2022/09/28 03:30:18;;;;;;;13.80;11.48;;;8.80;99.90;;;;;;5043215;28;20107;-76
2022/09/28 03:32:44;;;;;;;13.45;12.02;;;8.70;99.90;;;;;;5045893;28;20447;-75
2022/09/28 03:35:10;;;;;;;12.45;11.15;;;8.80;99.90;;;;;;5040371;28;20124;-76
2022/09/28 03:37:36;;;;;;;12.73;10.73;;;8.70;99.90;;;;;;5046110;28;20068;-76
2022/09/28 03:40:02;;;;;;;11.73;10.20;;;8.80;99.90;;;;;;5047487;28;20157;-75
2022/09/28 03:42:28;;;;;;;11.23;10.05;;;8.70;99.90;;;;;;5045729;28;20045;-76
2022/09/28 03:44:57;;;;;;;11.50;9.45;;;8.70;99.90;;;;;;5045151;28;20441;-76
2022/09/28 03:47:23;;;;;;;12.20;10.23;;;8.80;99.90;;;;;;5047146;28;20142;-76
2022/09/28 03:49:49;;;;;;;10.10;9.10;;;8.70;99.90;;;;;;5052226;28;20049;-76
2022/09/28 03:52:15;;;;;;;10.88;9.77;;;8.70;99.90;;;;;;5046861;28;20064;-76
2022/09/28 03:54:40;;;;;;;11.00;9.80;;;8.70;99.90;;;;;;5048750;28;20406;-76
2022/09/28 03:57:06;;;;;;;10.98;9.40;;;8.70;99.90;;;;;;5048618;28;20052;-76
2022/09/28 03:59:36;;;;;;;10.60;7.97;;;8.70;99.90;;;;;;5044749;28;20591;-76
2022/09/28 04:02:02;;;;;;;9.20;8.30;;;8.70;99.90;;;;;;5047001;28;20051;-77
2022/09/28 04:04:28;;;;;;;9.23;8.18;;;8.70;99.90;;;;;;5039984;28;20084;-77
2022/09/28 04:06:53;;;;;;;10.35;9.35;;;8.70;99.90;;;;;;5045389;28;20698;-75
2022/09/28 04:09:19;;;;;;;8.88;7.97;;;8.70;99.90;;;;;;5054736;28;20048;-76
2022/09/28 04:11:46;;;;;;;9.65;8.65;;;8.60;99.90;;;;;;5047942;28;20048;-76
2022/09/28 04:14:12;;;;;;;11.55;10.18;;;8.60;99.90;;;;;;5047042;28;20132;-76
2022/09/28 04:16:38;;;;;;;11.27;10.10;;;8.60;99.90;;;;;;5054445;28;20128;-76
2022/09/28 04:19:03;;;;;;;12.65;10.57;;;8.50;99.90;;;;;;5047149;28;20119;-76
2022/09/28 04:21:29;;;;;;;12.88;10.80;;;8.60;99.90;;;;;;5045371;28;20044;-76
2022/09/28 04:23:56;;;;;;;12.90;11.60;;;8.60;99.90;;;;;;5046394;28;20033;-76
2022/09/28 04:26:25;;;;;;;12.43;11.13;;;8.60;99.90;;;;;;5049563;28;20480;-76
2022/09/28 04:31:48;;;;;;;;;;;8.50;99.90;;;;;;5048868;28;20131;-74
2022/09/28 04:34:17;;;;;;;14.23;11.33;;;8.50;99.90;;;;;;5046695;28;19921;-74
2022/09/28 04:36:46;;;;;;;15.60;11.98;;;8.50;99.90;;;;;;5053608;28;20041;-74
2022/09/28 04:39:13;;;;;;;14.80;13.20;;;8.50;99.90;;;;;;5049581;28;20090;-75
2022/09/28 04:41:40;;;;;;;14.50;13.00;;;8.60;99.90;;;;;;5048778;28;20044;-74
2022/09/28 04:44:05;;;;;;;15.85;14.15;;;8.60;99.90;;;;;;5043346;28;20052;-76
2022/09/28 04:46:32;;;;;;;15.38;13.55;;;8.60;99.90;;;;;;5063981;28;20135;-76
2022/09/28 04:48:57;;;;;;;15.35;13.20;;;8.60;99.90;;;;;;5046778;28;20039;-74
2022/09/28 04:51:23;;;;;;;16.08;14.38;;;8.70;99.90;;;;;;5046639;28;20124;-74
2022/09/28 04:53:49;;;;;;;16.77;14.95;;;8.70;99.90;;;;;;5042047;28;20491;-74
2022/09/28 04:56:17;;;;;;;21.63;17.70;;;8.70;99.90;;;;;;5049643;28;20080;-75
2022/09/28 04:58:42;;;;;;;;;;;8.70;99.90;;;;;;5049491;28;20406;-74
2022/09/28 05:01:14;;;;;;;22.45;19.42;;;8.70;99.90;;;;;;5045853;28;19924;-75
2022/09/28 05:03:40;;;;;;;24.65;21.02;;;8.70;99.90;;;;;;5047695;28;20339;-75
2022/09/28 05:06:06;;;;;;;32.47;25.67;;;8.80;99.90;;;;;;5043459;28;20421;-74
2022/09/28 05:08:34;;;;;;;29.45;24.17;;;8.80;99.90;;;;;;5044860;28;20096;-74
2022/09/28 05:11:05;;;;;;;28.85;24.27;;;8.80;99.90;;;;;;5049699;28;20102;-74
2022/09/28 05:13:34;;;;;;;33.72;25.42;;;8.80;99.90;;;;;;5046762;28;20052;-74
2022/09/28 05:16:00;;;;;;;32.92;24.75;;;8.80;99.90;;;;;;5046663;28;20128;-76
2022/09/28 05:18:26;;;;;;;31.35;24.80;;;8.80;99.90;;;;;;5040648;28;20037;-75
2022/09/28 05:20:52;;;;;;;29.70;23.77;;;8.80;99.90;;;;;;5043582;28;20083;-76
2022/09/28 05:23:18;;;;;;;33.83;26.00;;;8.90;99.90;;;;;;5047971;28;20041;-75
2022/09/28 05:25:44;;;;;;;44.70;26.73;;;8.80;99.90;;;;;;5045697;28;20396;-75
2022/09/28 05:28:10;;;;;;;46.57;26.40;;;8.80;99.90;;;;;;5049094;28;20052;-74
2022/09/28 05:30:36;;;;;;;135.35;28.83;;;8.80;99.90;;;;;;5045653;28;20036;-75
2022/09/28 05:33:03;;;;;;;124.32;26.95;;;8.80;99.90;;;;;;5044000;28;20392;-76
2022/09/28 05:35:29;;;;;;;88.70;25.25;;;8.70;99.90;;;;;;5045919;28;20395;-80
2022/09/28 05:37:55;;;;;;;182.00;26.90;;;8.70;99.90;;;;;;5043606;28;20057;-78
2022/09/28 05:40:22;;;;;;;123.38;26.10;;;8.70;99.90;;;;;;5045595;22;20111;-78
2022/09/28 05:42:49;;;;;;;131.35;27.35;;;8.60;99.90;;;;;;5043216;28;20153;-78
2022/09/28 05:45:15;;;;;;;140.77;26.98;;;8.60;99.90;;;;;;5039131;28;20118;-76
2022/09/28 05:47:44;;;;;;;152.48;26.20;;;8.60;99.90;;;;;;5044664;28;20036;-78
2022/09/28 05:50:11;;;;;;;49.63;25.02;;;8.60;99.90;;;;;;5041991;28;20067;-77
2022/09/28 05:52:37;;;;;;;105.03;25.73;;;8.60;99.90;;;;;;5046389;28;20072;-78
2022/09/28 05:55:05;;;;;;;245.45;29.23;;;8.50;99.90;;;;;;5041864;28;20068;-77
2022/09/28 05:57:31;;;;;;;109.38;25.52;;;8.60;99.90;;;;;;5038319;28;20049;-76
2022/09/28 06:00:07;;;;;;;36.88;25.30;;;8.50;99.90;;;;;;5041990;28;20829;-78
2022/09/28 06:02:34;;;;;;;57.72;26.70;;;8.60;99.90;;;;;;5043748;28;20396;-77
2022/09/28 06:05:22;;;;;;;53.95;27.23;;;8.60;99.90;;;;;;5033355;28;20144;-78
2022/09/28 06:07:49;;;;;;;120.57;26.70;;;8.60;99.90;;;;;;5042614;28;20048;-78
2022/09/28 06:10:22;;;;;;;73.22;26.08;;;8.70;99.90;;;;;;5040583;28;20051;-78
2022/09/28 06:12:52;;;;;;;66.03;26.88;;;8.70;99.90;;;;;;5040635;28;20055;-78
2022/09/28 06:15:18;;;;;;;100.57;25.92;;;8.60;99.90;;;;;;5043148;28;20045;-77
2022/09/28 06:17:44;;;;;;;49.33;23.10;;;8.60;99.90;;;;;;5037407;28;20143;-77
2022/09/28 06:20:10;;;;;;;97.47;25.15;;;8.60;99.90;;;;;;5035894;28;20041;-77
2022/09/28 06:22:37;;;;;;;135.30;25.80;;;8.60;99.90;;;;;;5037792;28;20041;-78
2022/09/28 06:25:04;;;;;;;142.05;26.52;;;8.60;99.90;;;;;;5043106;28;20173;-77
2022/09/28 06:27:32;;;;;;;63.75;25.02;;;8.60;99.90;;;;;;5040626;28;20041;-77
2022/09/28 06:30:01;;;;;;;;;;;8.60;99.90;;;;;;5043224;28;20053;-78
2022/09/28 06:32:28;;;;;;;80.47;23.85;;;8.60;99.90;;;;;;5039235;28;19921;-78
2022/09/28 06:34:55;;;;;;;;;;;8.60;99.90;;;;;;5042022;28;20576;-77
2022/09/28 06:37:21;;;;;;;75.03;24.20;;;8.60;99.90;;;;;;5043860;28;19920;-78
2022/09/28 06:39:47;;;;;;;105.22;25.60;;;8.60;99.90;;;;;;5041723;28;20083;-78
2022/09/28 06:42:14;;;;;;;109.63;25.63;;;8.60;99.90;;;;;;5034620;28;20075;-77
2022/09/28 06:44:40;;;;;;;;;;;8.50;99.90;;;;;;5041305;28;20080;-76
2022/09/28 06:47:06;;;;;;;28.63;22.23;;;8.50;99.90;;;;;;5040146;28;20004;-78
2022/09/28 06:49:32;;;;;;;36.05;22.70;;;8.50;99.90;;;;;;5036009;23;20045;-77
2022/09/28 06:51:59;;;;;;;87.35;24.00;;;8.60;99.90;;;;;;4993301;28;20387;-79
2022/09/28 06:54:27;;;;;;;81.05;23.33;;;8.70;99.90;;;;;;5019293;28;20117;-77
2022/09/28 06:56:56;;;;;;;38.38;21.92;;;8.60;99.90;;;;;;5029026;28;20415;-76
2022/09/28 06:59:22;;;;;;;33.67;20.63;;;8.70;99.90;;;;;;5025386;28;20539;-77
2022/09/28 07:01:49;;;;;;;29.92;18.63;;;8.70;99.90;;;;;;5020019;28;20072;-78
2022/09/28 07:04:15;;;;;;;37.28;20.08;;;8.70;99.90;;;;;;5021772;28;20098;-76
2022/09/28 07:06:46;;;;;;;25.33;20.58;;;8.70;99.90;;;;;;5023461;28;20142;-77
2022/09/28 07:09:12;;;;;;;28.30;19.98;;;8.80;99.90;;;;;;5025794;28;20046;-76
2022/09/28 07:11:38;;;;;;;44.35;21.42;;;8.80;99.90;;;;;;5023967;28;20079;-78
2022/09/28 07:14:13;;;;;;;36.60;23.02;;;8.90;99.90;;;;;;5015882;28;20034;-79
2022/09/28 07:16:48;;;;;;;32.05;21.48;;;8.90;99.90;;;;;;5011453;28;20073;-78
2022/09/28 07:19:15;;;;;;;40.05;20.65;;;9.00;99.90;;;;;;5026905;28;20053;-80
2022/09/28 07:21:41;;;;;;;25.15;20.00;;;9.00;99.90;;;;;;5022559;28;20507;-81
2022/09/28 07:24:07;;;;;;;23.48;17.98;;;9.10;99.90;;;;;;5024905;28;20050;-81
2022/09/28 07:26:33;;;;;;;23.85;18.92;;;9.10;99.90;;;;;;5023797;28;20056;-78
2022/09/28 07:28:58;;;;;;;20.70;16.45;;;9.20;99.90;;;;;;5023228;28;20053;-78
2022/09/28 07:31:24;;;;;;;21.90;17.35;;;9.10;99.90;;;;;;5010984;28;20071;-75
2022/09/28 07:33:53;;;;;;;23.02;19.02;;;9.10;99.90;;;;;;5026003;28;20558;-81
2022/09/28 07:36:22;;;;;;;24.25;18.73;;;9.10;99.90;;;;;;5021881;28;20095;-81
2022/09/28 07:38:49;;;;;;;27.38;19.17;;;9.10;99.90;;;;;;4994675;28;20072;-77
2022/09/28 07:41:20;;;;;;;23.05;18.10;;;9.10;99.90;;;;;;5026198;28;20057;-77
2022/09/28 07:43:47;;;;;;;23.83;18.63;;;9.20;99.90;;;;;;5009573;28;20041;-79
2022/09/28 07:46:20;;;;;;;25.90;19.38;;;9.20;99.90;;;;;;5022316;28;20057;-79
2022/09/28 07:48:48;;;;;;;26.65;19.67;;;9.30;99.90;;;;;;4996735;28;20176;-80
2022/09/28 07:51:16;;;;;;;26.15;20.33;;;9.40;99.90;;;;;;5003594;28;20060;-78
2022/09/28 07:53:42;;;;;;;24.70;19.10;;;9.40;99.90;;;;;;5006118;28;20042;-82
2022/09/28 07:56:17;;;;;;;24.00;19.15;;;9.50;99.90;;;;;;5003521;28;20132;-81
2022/09/28 07:58:45;;;;;;;21.05;18.27;;;9.50;99.90;;;;;;5006711;28;20128;-78
2022/09/28 08:01:29;;;;;;;22.38;17.98;;;9.60;99.90;;;;;;5004041;28;20049;-81
2022/09/28 08:03:55;;;;;;;19.55;15.50;;;9.70;99.90;;;;;;5006075;28;20348;-81
2022/09/28 08:06:22;;;;;;;18.50;15.77;;;9.60;99.90;;;;;;4989984;28;20567;-82
2022/09/28 08:08:48;;;;;;;16.70;14.60;;;9.60;99.90;;;;;;5008885;28;20057;-82
2022/09/28 08:11:16;;;;;;;19.58;15.52;;;9.70;99.90;;;;;;5008506;28;20595;-80
2022/09/28 08:13:44;;;;;;;17.08;14.32;;;9.70;99.90;;;;;;5007658;28;20048;-81
2022/09/28 08:16:11;;;;;;;16.48;13.77;;;9.80;99.90;;;;;;5004480;28;20052;-77
2022/09/28 08:18:37;;;;;;;16.42;14.27;;;9.80;99.90;;;;;;5007012;28;20119;-79
2022/09/28 08:23:51;;;;;;;17.63;15.27;;;9.90;99.90;;;;;;4999781;28;20050;-81
2022/09/28 08:26:17;;;;;;;17.23;14.73;;;9.90;99.90;;;;;;5007191;28;20050;-81
2022/09/28 08:28:45;;;;;;;17.00;15.20;;;9.90;99.90;;;;;;5006191;28;20052;-80
2022/09/28 08:31:11;;;;;;;17.63;15.75;;;10.00;99.90;;;;;;5001829;28;20058;-77
2022/09/28 08:33:37;;;;;;;16.70;14.77;;;10.00;99.90;;;;;;5007938;28;20045;-79
2022/09/28 08:36:04;;;;;;;18.88;14.30;;;10.10;99.90;;;;;;4998989;28;20242;-79
2022/09/28 08:38:32;;;;;;;15.88;13.73;;;10.10;99.90;;;;;;4990275;28;20132;-79
2022/09/28 08:41:17;;;;;;;16.08;14.23;;;10.00;99.90;;;;;;5003018;28;20084;-78
2022/09/28 08:44:01;;;;;;;15.15;13.55;;;10.00;99.90;;;;;;5004214;28;20042;-79
2022/09/28 08:46:35;;;;;;;13.77;12.38;;;10.00;99.90;;;;;;5010044;28;20053;-76
2022/09/28 08:49:35;;;;;;;15.65;12.52;;;9.90;99.90;;;;;;5004590;28;20112;-76
2022/09/28 08:52:10;;;;;;;14.35;12.35;;;10.00;99.90;;;;;;5020769;28;20049;-77
2022/09/28 08:54:53;;;;;;;16.70;14.30;;;10.00;99.90;;;;;;5024175;28;20030;-76
2022/09/28 08:57:29;;;;;;;15.77;14.07;;;10.10;99.90;;;;;;5022670;28;20045;-75
2022/09/28 08:59:58;;;;;;;15.30;13.65;;;10.20;99.90;;;;;;5021507;28;20097;-78
2022/09/28 09:02:41;;;;;;;15.35;13.40;;;10.30;99.90;;;;;;5018297;28;20073;-79
2022/09/28 09:05:13;;;;;;;16.38;13.88;;;10.30;99.90;;;;;;5008126;28;20103;-79
2022/09/28 09:08:07;;;;;;;15.55;12.70;;;10.30;99.90;;;;;;5026032;28;20041;-81
2022/09/28 09:10:44;;;;;;;14.50;12.50;;;10.40;99.90;;;;;;5002470;28;20049;-80
2022/09/28 09:13:55;;;;;;;15.50;12.02;;;10.50;99.90;;;;;;5006075;28;20133;-78
2022/09/28 09:17:04;;;;;;;13.27;11.55;;;10.60;99.90;;;;;;5021265;28;20060;-77
2022/09/28 09:19:35;;;;;;;14.60;12.80;;;10.70;99.90;;;;;;5027268;28;20061;-78
2022/09/28 09:22:33;;;;;;;15.35;13.50;;;10.70;99.90;;;;;;5011518;28;20072;-77
2022/09/28 09:25:19;;;;;;;16.50;14.63;;;10.80;99.90;;;;;;4980065;28;20056;-77
2022/09/28 09:28:42;;;;;;;16.67;14.15;;;10.80;99.90;;;;;;5028634;28;20081;-77
2022/09/28 09:31:13;;;;;;;15.73;12.82;;;10.90;99.90;;;;;;4946584;29;20051;-77
2022/09/28 09:34:13;;;;;;;15.35;12.75;;;10.90;99.90;;;;;;5024795;28;20135;-77
2022/09/28 09:37:35;;;;;;;15.77;12.65;;;10.90;99.90;;;;;;5012180;28;20045;-78
2022/09/28 09:40:41;;;;;;;12.90;11.48;;;11.00;99.90;;;;;;5026431;28;20126;-77
2022/09/28 09:43:49;;;;;;;15.73;13.80;;;11.10;99.90;;;;;;5007745;28;20049;-77
2022/09/28 09:46:39;;;;;;;18.13;13.52;;;11.20;99.90;;;;;;5026587;28;20037;-77
2022/09/28 09:49:21;;;;;;;15.32;12.93;;;11.30;99.90;;;;;;4990489;28;20054;-78
2022/09/28 09:51:52;;;;;;;17.85;13.48;;;11.40;99.90;;;;;;4991022;28;20103;-77
2022/09/28 09:54:48;;;;;;;15.73;13.85;;;11.40;99.90;;;;;;5025279;28;20060;-77
2022/09/28 09:57:39;;;;;;;15.43;13.25;;;11.50;99.90;;;;;;5006663;28;20060;-77
2022/09/28 10:00:14;;;;;;;12.35;11.05;;;11.50;99.90;;;;;;5010980;28;20398;-77
2022/09/28 10:02:43;;;;;;;13.35;11.60;;;11.60;99.90;;;;;;5026796;28;20041;-78
2022/09/28 10:05:12;;;;;;;13.27;10.77;;;11.70;99.90;;;;;;5025576;28;20046;-77
2022/09/28 10:07:59;;;;;;;14.52;11.55;;;11.80;99.90;;;;;;5008722;28;20484;-77
2022/09/28 10:10:28;;;;;;;12.73;10.90;;;11.90;99.90;;;;;;5009109;28;20161;-77
2022/09/28 10:12:54;;;;;;;13.45;10.38;;;12.10;99.90;;;;;;5028191;28;20045;-78
2022/09/28 10:15:29;;;;;;;14.90;11.60;;;12.20;99.90;;;;;;5028267;28;20042;-78
2022/09/28 10:17:59;;;;;;;13.48;10.98;;;12.30;99.90;;;;;;5027238;28;20564;-77
2022/09/28 10:20:28;;;;;;;13.02;10.52;;;12.40;99.90;;;;;;5010572;28;20045;-77
2022/09/28 10:22:57;;;;;;;13.20;11.45;;;12.50;99.90;;;;;;5026351;28;20041;-77
2022/09/28 10:25:24;;;;;;;13.50;10.77;;;12.50;99.90;;;;;;5027549;28;20053;-77
2022/09/28 10:27:53;;;;;;;13.57;10.85;;;12.50;99.90;;;;;;5027788;28;20480;-76
2022/09/28 10:30:24;;;;;;;12.07;10.70;;;12.60;99.90;;;;;;5008356;28;20037;-76
2022/09/28 10:32:54;;;;;;;13.15;10.05;;;12.70;99.90;;;;;;5027818;28;20041;-77
2022/09/28 10:35:30;;;;;;;11.35;9.45;;;12.80;99.90;;;;;;5028252;28;20120;-77
2022/09/28 10:38:15;;;;;;;10.30;9.13;;;12.90;99.90;;;;;;5026819;28;20050;-77
2022/09/28 10:40:45;;;;;;;12.60;9.73;;;13.00;99.90;;;;;;5027892;28;20497;-77
2022/09/28 10:43:25;;;;;;;13.88;10.02;;;13.00;99.90;;;;;;5008689;28;20057;-84
2022/09/28 10:46:20;;;;;;;11.73;9.45;;;13.00;99.90;;;;;;5015073;28;20105;-85
2022/09/28 10:49:03;;;;;;;10.65;9.55;;;13.00;99.90;;;;;;5019529;28;20104;-81
2022/09/28 10:51:43;;;;;;;13.50;11.40;;;13.10;99.90;;;;;;5026600;28;20134;-82
2022/09/28 10:54:19;;;;;;;12.10;10.55;;;13.10;99.90;;;;;;5022290;28;20050;-81
2022/09/28 10:56:46;;;;;;;13.30;9.63;;;13.10;99.90;;;;;;5024702;28;20041;-83
2022/09/28 10:59:27;;;;;;;12.10;9.10;;;13.20;99.90;;;;;;5007600;28;20056;-79
2022/09/28 11:02:14;;;;;;;11.68;8.77;;;13.30;99.90;;;;;;5002862;28;20505;-84
2022/09/28 11:04:42;;;;;;;9.70;8.70;;;13.40;99.90;;;;;;5006452;28;20056;-82
2022/09/28 11:07:32;;;;;;;9.63;8.63;;;13.50;99.90;;;;;;5019872;28;20045;-78
2022/09/28 11:09:59;;;;;;;11.88;8.45;;;13.60;99.90;;;;;;5002492;28;20042;-82
2022/09/28 11:15:41;;;;;;;10.00;7.80;;;13.70;99.90;;;;;;5014528;28;20295;-74
2022/09/28 11:18:31;;;;;;;11.32;8.13;;;13.80;99.90;;;;;;5017182;28;20104;-78
2022/09/28 11:21:07;;;;;;;8.80;7.20;;;13.80;99.90;;;;;;5002454;28;20095;-81
2022/09/28 11:23:33;;;;;;;8.65;7.00;;;13.80;99.90;;;;;;5026453;28;20073;-78
2022/09/28 11:26:04;;;;;;;8.32;7.43;;;13.80;99.90;;;;;;5019050;28;20041;-80
2022/09/28 11:28:34;;;;;;;9.38;7.88;;;13.90;99.90;;;;;;5016844;28;20042;-77
2022/09/28 11:31:01;;;;;;;10.40;8.32;;;14.00;99.90;;;;;;5024311;28;20049;-77
2022/09/28 11:33:27;;;;;;;10.90;8.07;;;14.10;99.90;;;;;;5023041;28;20176;-77
2022/09/28 11:36:12;;;;;;;11.45;9.07;;;14.20;99.90;;;;;;5024099;28;20065;-77
2022/09/28 11:39:16;;;;;;;9.68;8.48;;;14.20;99.90;;;;;;5022283;28;20488;-77
2022/09/28 11:42:09;;;;;;;9.25;7.22;;;14.20;99.90;;;;;;5023804;28;20111;-77
2022/09/28 11:44:45;;;;;;;7.20;6.07;;;14.30;99.90;;;;;;5024519;28;20061;-77
2022/09/28 11:47:16;;;;;;;7.15;5.65;;;14.50;99.90;;;;;;5024917;28;20142;-77
2022/09/28 11:49:59;;;;;;;7.75;5.68;;;14.50;99.90;;;;;;5022998;28;20053;-77
2022/09/28 11:53:02;;;;;;;7.93;5.95;;;14.50;99.90;;;;;;5024306;28;20049;-77
2022/09/28 11:55:36;;;;;;;7.97;5.50;;;14.40;99.90;;;;;;5021229;28;20049;-77
2022/09/28 11:58:36;;;;;;;7.97;5.53;;;14.40;99.90;;;;;;5020518;28;20053;-78
2022/09/28 12:01:02;;;;;;;5.32;4.65;;;14.40;99.90;;;;;;5013173;28;20056;-77
2022/09/28 12:03:49;;;;;;;5.15;4.65;;;14.40;99.90;;;;;;5025990;28;20053;-83
2022/09/28 12:06:17;;;;;;;;;;;14.50;99.90;;;;;;5009323;28;20592;-79
2022/09/28 12:09:10;;;;;;;6.20;5.32;;;14.40;99.90;;;;;;5028406;28;19932;-80
2022/09/28 12:11:42;;;;;;;6.85;4.70;;;14.50;99.90;;;;;;5026879;28;20060;-80
2022/09/28 12:14:18;;;;;;;6.30;4.43;;;14.40;99.90;;;;;;5026141;28;20107;-79
2022/09/28 12:16:52;;;;;;;4.97;3.78;;;14.40;99.90;;;;;;5029116;28;20042;-84
2022/09/28 12:19:40;;;;;;;5.90;4.03;;;14.50;99.90;;;;;;5012354;28;20045;-76
2022/09/28 12:22:32;;;;;;;5.32;4.40;;;14.60;99.90;;;;;;5020913;28;20148;-81
2022/09/28 12:25:23;;;;;;;5.47;4.45;;;14.70;99.90;;;;;;5026438;28;20041;-80
2022/09/28 12:28:04;;;;;;;6.35;4.30;;;14.60;99.90;;;;;;5024864;28;20047;-86
2022/09/28 12:30:34;;;;;;;5.53;3.90;;;14.60;99.90;;;;;;5027364;28;20056;-79
2022/09/28 12:33:06;;;;;;;4.70;3.35;;;14.50;99.90;;;;;;5026720;28;20041;-78
2022/09/28 12:35:49;;;;;;;5.15;3.83;;;14.50;99.90;;;;;;5028172;28;20057;-79
2022/09/28 12:38:37;;;;;;;4.70;3.30;;;14.60;99.90;;;;;;5027774;28;20045;-79
2022/09/28 12:41:38;;;;;;;4.57;3.88;;;14.80;99.90;;;;;;5011421;28;20045;-78
2022/09/28 12:44:23;;;;;;;6.47;4.45;;;15.00;99.90;;;;;;5002421;28;20088;-79
2022/09/28 12:47:08;;;;;;;10.13;5.70;;;15.00;99.90;;;;;;5020853;28;20077;-78
2022/09/28 12:49:57;;;;;;;6.95;4.32;;;15.10;99.90;;;;;;5005835;28;20068;-77
2022/09/28 12:52:47;;;;;;;12.02;6.78;;;15.20;99.90;;;;;;5028743;28;20053;-79
2022/09/28 12:55:35;;;;;;;19.25;9.40;;;15.20;99.90;;;;;;5026788;28;20057;-79
2022/09/28 12:58:03;;;;;;;7.78;4.47;;;15.20;99.90;;;;;;5024804;28;20053;-79
2022/09/28 13:00:42;;;;;;;4.90;3.78;;;15.20;99.90;;;;;;5023451;28;20129;-79
2022/09/28 13:03:30;;;;;;;5.13;3.42;;;15.20;99.90;;;;;;5027970;28;20429;-78
2022/09/28 13:06:17;;;;;;;5.05;3.42;;;15.20;99.90;;;;;;5027568;28;20088;-79
2022/09/28 13:08:54;;;;;;;;;;;15.20;99.90;;;;;;5027271;28;20052;-78
2022/09/28 13:11:33;;;;;;;5.68;3.65;;;15.20;99.90;;;;;;5024564;28;19925;-83
2022/09/28 13:14:06;;;;;;;6.93;3.05;;;15.20;99.90;;;;;;5027202;28;20049;-82
2022/09/28 13:17:09;;;;;;;4.40;3.50;;;15.40;99.90;;;;;;5023646;28;20621;-84
2022/09/28 13:19:57;;;;;;;5.38;3.05;;;15.50;99.90;;;;;;5020599;28;20085;-84
2022/09/28 13:22:41;;;;;;;6.05;3.58;;;15.60;99.90;;;;;;5027476;28;20049;-87
2022/09/28 13:25:15;;;;;;;4.95;2.97;;;15.60;99.90;;;;;;5026689;28;20128;-89